Scroll down
FLIGHT INFORMATION
PMDG Flight Operations

PFO99

At Arrival Gate

PANC
 PAJN
DATE: 2020-12-23
GATE: R14
GATE DEPARTURE: 21:09
TAKEOFF: 21:20
DATE: 2020-12-23
GATE:  -
LANDING: 22:45
GATE ARRIVAL: 22:54
FLIGHT DATA
Crew: 
Speed: 
435 kts
Altitude: 
35,014 ft
Stage Length: 
494.6 nm
Block Time: 
1.7 hrs
Flight Time: 
1.4 hrs
Fuel Used: 
8,784 lb
Cleared Route: PANC ASORT EEFNB RW08
TRACK DATA
50,000 ft 1,000 kts
AIRCRAFT INFO AND CUMULATIVE STATS
Aircraft Type: 
B738BCF
Registration: 
SELCAL: 
MSN/LN: 
0 / 1
Total Flights: 
1
Total Block Time: 
1.7 hrs
Total Flight Time: 
1.4 hrs
Total Fuel Time: 
8,784 lb
DATALINK LOG | Newest first | Current as of: 2021-05-07 13:38:06
LABEL SEQUENCE CONTENT Dn/Up
QD264622:54 6.2▼ Dn
QC182422:45▼ Dn
GA1157GATE PENDING▲ Up
GR1147PAJN 22:42 MAAS 00 YP/UM 0/0 WCHR/S/C 0/0/0 HI-VAL NO DIPL/VIP NO▼ Dn
5U0702PAJN 230231Z 11015G25KT 10SM -SHRA FEW010 SCT025 OVC050 WS020/15030KT 03/M01 A3014▲ Up
5S0844PAJN▼ Dn
UM343305CRUISE CLIMB TO 350▲ Up
UM172815AT 33 PAST THE HOUR EXPECT CRUISE CLIMB TO 350▲ Up
DM542805WHEN CAN WE EXPECT CRUISE CLIMB TO FL 350▼ Dn
QB214021:20▼ Dn
QA045321:09 14.9▼ Dn
A33735CLEARED TO PAJN VIA ASORT. SQUAWK 6240.▲ Up
B33726PANC PAJN P ▼ Dn
Q03524[LINK ACK]▲ Up
Q03524[LINK TEST]▼ Dn


AIRCRAFT HISTORY
FLIGHT DATE FLIGHT NO. ORIGIN DESTINATION CLEARED ROUTE BLOCK TIME FLIGHT TIME FUEL USED PILOT
2020-12-23PFO99PANC PAJN PANC ASORT EEFNB RW081.7 hrs1.4 hrs8,784 lbZsolt Szivak